Lafkin, Texas
Current Conditions -  °F | °C
As of 9:15 AM on Friday 19 Dec 2014 (Local Time) from KT65 Reporting Station
Haze Haze  
Wind Chill: 64°   Ceiling: 1400
Heat Index: 64°   Visibility: 5mi
Dew Point: 62°   Wind: 5mph
Humidity: 92%   Direction: 300°WNW
Pressure: 30.01"   Gusts: NA
Location:  26.1795°N, 97.829°W
Report Text: KT65 191515Z AUTO 30004KT 5SM BR SCT009 BKN014 OVC036 18/17 A3001 RMK AO2 T01800166
Loading
Personal Weather Stations






























Interactive Weather Map New forecast layout! Learn more

10-Day Weather Forecast

Advertisements
Track Severe Weather on mobile